sensor_id;sensor_type;location;lat;lon;timestamp;pressure;altitude;pressure_sealevel;temperature;humidity
13068;BME280;6600;51.362;6.686;2023-08-20T00:00:51;101620.41;;;20.62;100.00
13068;BME280;6600;51.362;6.686;2023-08-20T00:03:16;101621.88;;;20.43;100.00
13068;BME280;6600;51.362;6.686;2023-08-20T00:05:42;101610.94;;;20.38;100.00
13068;BME280;6600;51.362;6.686;2023-08-20T00:08:07;101623.53;;;20.44;100.00
13068;BME280;6600;51.362;6.686;2023-08-20T00:10:33;101613.75;;;20.48;100.00
13068;BME280;6600;51.362;6.686;2023-08-20T00:12:58;101610.38;;;20.36;100.00
13068;BME280;6600;51.362;6.686;2023-08-20T00:15:24;101618.28;;;20.38;100.00
13068;BME280;6600;51.362;6.686;2023-08-20T00:17:52;101625.22;;;20.50;100.00
13068;BME280;6600;51.362;6.686;2023-08-20T00:20:18;101619.69;;;20.40;100.00
13068;BME280;6600;51.362;6.686;2023-08-20T00:22:44;101616.47;;;20.48;100.00
13068;BME280;6600;51.362;6.686;2023-08-20T00:25:11;101614.25;;;20.45;100.00
13068;BME280;6600;51.362;6.686;2023-08-20T00:27:38;101619.16;;;20.43;100.00
13068;BME280;6600;51.362;6.686;2023-08-20T00:30:04;101613.66;;;20.38;100.00
13068;BME280;6600;51.362;6.686;2023-08-20T00:32:30;101611.34;;;20.25;100.00
13068;BME280;6600;51.362;6.686;2023-08-20T00:34:55;101598.19;;;20.17;100.00
13068;BME280;6600;51.362;6.686;2023-08-20T00:37:21;101599.81;;;20.13;100.00
13068;BME280;6600;51.362;6.686;2023-08-20T00:39:46;101608.81;;;20.18;100.00
13068;BME280;6600;51.362;6.686;2023-08-20T00:42:12;101601.53;;;20.24;100.00
13068;BME280;6600;51.362;6.686;2023-08-20T00:44:39;101606.25;;;20.07;100.00
13068;BME280;6600;51.362;6.686;2023-08-20T00:47:06;101615.13;;;20.24;100.00
13068;BME280;6600;51.362;6.686;2023-08-20T00:49:32;101612.75;;;20.28;100.00
13068;BME280;6600;51.362;6.686;2023-08-20T00:51:59;101609.13;;;20.22;100.00
13068;BME280;6600;51.362;6.686;2023-08-20T00:54:24;101614.94;;;20.31;100.00
13068;BME280;6600;51.362;6.686;2023-08-20T00:56:51;101616.53;;;20.27;100.00
13068;BME280;6600;51.362;6.686;2023-08-20T00:59:16;101611.09;;;20.53;100.00
13068;BME280;6600;51.362;6.686;2023-08-20T01:01:42;101612.53;;;20.34;100.00
13068;BME280;6600;51.362;6.686;2023-08-20T01:04:08;101611.53;;;20.40;100.00
13068;BME280;6600;51.362;6.686;2023-08-20T01:09:30;101613.19;;;20.46;100.00
13068;BME280;6600;51.362;6.686;2023-08-20T01:12:03;101621.06;;;20.43;100.00
13068;BME280;6600;51.362;6.686;2023-08-20T01:14:29;101611.59;;;20.50;100.00
13068;BME280;6600;51.362;6.686;2023-08-20T01:16:54;101614.25;;;20.45;100.00
13068;BME280;6600;51.362;6.686;2023-08-20T01:19:21;101615.09;;;20.46;100.00
13068;BME280;6600;51.362;6.686;2023-08-20T01:22:06;101615.09;;;20.46;100.00
13068;BME280;6600;51.362;6.686;2023-08-20T01:29:36;101622.44;;;20.45;100.00
13068;BME280;6600;51.362;6.686;2023-08-20T01:32:03;101621.59;;;20.40;100.00
13068;BME280;6600;51.362;6.686;2023-08-20T01:34:29;101622.63;;;20.34;100.00
13068;BME280;6600;51.362;6.686;2023-08-20T01:36:54;101618.19;;;20.28;100.00
13068;BME280;6600;51.362;6.686;2023-08-20T01:39:20;101617.22;;;20.17;100.00
13068;BME280;6600;51.362;6.686;2023-08-20T01:41:46;101615.22;;;20.29;100.00
13068;BME280;6600;51.362;6.686;2023-08-20T01:44:11;101613.84;;;20.05;100.00
13068;BME280;6600;51.362;6.686;2023-08-20T01:46:36;101623.59;;;20.01;100.00
13068;BME280;6600;51.362;6.686;2023-08-20T01:49:02;101620.34;;;19.99;100.00
13068;BME280;6600;51.362;6.686;2023-08-20T01:51:27;101620.84;;;19.96;100.00
13068;BME280;6600;51.362;6.686;2023-08-20T01:53:53;101624.00;;;19.88;100.00
13068;BME280;6600;51.362;6.686;2023-08-20T01:56:18;101631.63;;;19.86;100.00
13068;BME280;6600;51.362;6.686;2023-08-20T01:58:44;101638.38;;;19.83;100.00
13068;BME280;6600;51.362;6.686;2023-08-20T02:01:09;101633.75;;;19.84;100.00
13068;BME280;6600;51.362;6.686;2023-08-20T02:03:36;101637.66;;;19.93;100.00
13068;BME280;6600;51.362;6.686;2023-08-20T02:06:02;101643.22;;;20.03;100.00
13068;BME280;6600;51.362;6.686;2023-08-20T02:08:27;101643.22;;;20.03;100.00
13068;BME280;6600;51.362;6.686;2023-08-20T02:11:03;101646.00;;;20.08;100.00
13068;BME280;6600;51.362;6.686;2023-08-20T02:13:29;101657.69;;;20.08;100.00
13068;BME280;6600;51.362;6.686;2023-08-20T02:16:01;101660.22;;;20.15;100.00
13068;BME280;6600;51.362;6.686;2023-08-20T02:18:26;101669.41;;;20.09;100.00
13068;BME280;6600;51.362;6.686;2023-08-20T02:20:52;101683.25;;;20.07;100.00
13068;BME280;6600;51.362;6.686;2023-08-20T02:23:17;101687.31;;;20.05;100.00
13068;BME280;6600;51.362;6.686;2023-08-20T02:25:43;101692.22;;;20.03;100.00
13068;BME280;6600;51.362;6.686;2023-08-20T02:28:09;101691.94;;;20.04;100.00
13068;BME280;6600;51.362;6.686;2023-08-20T02:30:40;101688.38;;;20.04;100.00
13068;BME280;6600;51.362;6.686;2023-08-20T02:33:05;101687.25;;;20.00;100.00
13068;BME280;6600;51.362;6.686;2023-08-20T02:35:31;101687.31;;;20.05;100.00
13068;BME280;6600;51.362;6.686;2023-08-20T02:37:56;101699.78;;;20.01;100.00
13068;BME280;6600;51.362;6.686;2023-08-20T02:40:21;101687.94;;;20.12;100.00
13068;BME280;6600;51.362;6.686;2023-08-20T02:42:46;101690.03;;;20.05;100.00
13068;BME280;6600;51.362;6.686;2023-08-20T02:45:12;101686.38;;;20.16;100.00
13068;BME280;6600;51.362;6.686;2023-08-20T02:47:37;101677.09;;;20.17;100.00
13068;BME280;6600;51.362;6.686;2023-08-20T02:50:03;101689.50;;;20.03;100.00
13068;BME280;6600;51.362;6.686;2023-08-20T02:52:29;101675.47;;;20.16;100.00
13068;BME280;6600;51.362;6.686;2023-08-20T02:54:54;101675.25;;;19.96;100.00
13068;BME280;6600;51.362;6.686;2023-08-20T02:57:20;101684.41;;;19.90;100.00
13068;BME280;6600;51.362;6.686;2023-08-20T02:59:46;101683.78;;;19.83;100.00
13068;BME280;6600;51.362;6.686;2023-08-20T03:02:11;101683.72;;;19.78;100.00
13068;BME280;6600;51.362;6.686;2023-08-20T03:04:36;101687.13;;;19.90;100.00
13068;BME280;6600;51.362;6.686;2023-08-20T03:07:01;101676.25;;;19.90;100.00
13068;BME280;6600;51.362;6.686;2023-08-20T03:09:27;101686.00;;;19.86;100.00
13068;BME280;6600;51.362;6.686;2023-08-20T03:11:53;101695.03;;;19.91;100.00
13068;BME280;6600;51.362;6.686;2023-08-20T03:14:18;101697.50;;;19.93;100.00
13068;BME280;6600;51.362;6.686;2023-08-20T03:16:43;101703.44;;;19.90;100.00
13068;BME280;6600;51.362;6.686;2023-08-20T03:19:09;101701.25;;;19.87;100.00
13068;BME280;6600;51.362;6.686;2023-08-20T03:21:34;101702.94;;;19.93;100.00
13068;BME280;6600;51.362;6.686;2023-08-20T03:23:59;101702.94;;;19.93;100.00
13068;BME280;6600;51.362;6.686;2023-08-20T03:26:25;101711.81;;;20.05;100.00
13068;BME280;6600;51.362;6.686;2023-08-20T03:28:50;101707.50;;;20.09;100.00
13068;BME280;6600;51.362;6.686;2023-08-20T03:31:15;101703.09;;;20.03;100.00
13068;BME280;6600;51.362;6.686;2023-08-20T03:33:41;101703.88;;;20.03;100.00
13068;BME280;6600;51.362;6.686;2023-08-20T03:36:06;101699.47;;;19.97;100.00
13068;BME280;6600;51.362;6.686;2023-08-20T03:38:31;101695.88;;;19.92;100.00
13068;BME280;6600;51.362;6.686;2023-08-20T03:40:57;101688.59;;;19.97;100.00
13068;BME280;6600;51.362;6.686;2023-08-20T03:43:22;101695.72;;;20.03;100.00
13068;BME280;6600;51.362;6.686;2023-08-20T03:45:51;101701.56;;;20.12;100.00
13068;BME280;6600;51.362;6.686;2023-08-20T03:48:16;101700.94;;;20.05;100.00
13068;BME280;6600;51.362;6.686;2023-08-20T03:50:42;101694.16;;;20.07;100.00
13068;BME280;6600;51.362;6.686;2023-08-20T03:53:07;101698.06;;;20.16;100.00
13068;BME280;6600;51.362;6.686;2023-08-20T03:55:32;101701.16;;;20.25;100.00
13068;BME280;6600;51.362;6.686;2023-08-20T03:57:58;101698.06;;;20.16;100.00
13068;BME280;6600;51.362;6.686;2023-08-20T04:00:23;101701.03;;;19.93;100.00
13068;BME280;6600;51.362;6.686;2023-08-20T04:02:48;101689.28;;;19.88;100.00
13068;BME280;6600;51.362;6.686;2023-08-20T04:05:13;101692.31;;;19.70;100.00
13068;BME280;6600;51.362;6.686;2023-08-20T04:07:39;101695.66;;;19.77;100.00
13068;BME280;6600;51.362;6.686;2023-08-20T04:10:04;101697.75;;;19.70;100.00
13068;BME280;6600;51.362;6.686;2023-08-20T04:12:30;101697.06;;;19.57;100.00
13068;BME280;6600;51.362;6.686;2023-08-20T04:14:55;101696.16;;;19.52;100.00
13068;BME280;6600;51.362;6.686;2023-08-20T04:17:21;101706.53;;;19.38;100.00
13068;BME280;6600;51.362;6.686;2023-08-20T04:19:46;101715.63;;;19.27;100.00
13068;BME280;6600;51.362;6.686;2023-08-20T04:22:11;101713.97;;;19.26;100.00
13068;BME280;6600;51.362;6.686;2023-08-20T04:24:37;101713.16;;;19.42;100.00
13068;BME280;6600;51.362;6.686;2023-08-20T04:27:02;101724.66;;;19.33;100.00
13068;BME280;6600;51.362;6.686;2023-08-20T04:29:28;101706.84;;;19.58;100.00
13068;BME280;6600;51.362;6.686;2023-08-20T04:31:53;101709.31;;;19.60;100.00
13068;BME280;6600;51.362;6.686;2023-08-20T04:34:18;101713.88;;;19.54;100.00
13068;BME280;6600;51.362;6.686;2023-08-20T04:36:44;101708.00;;;19.62;100.00
13068;BME280;6600;51.362;6.686;2023-08-20T04:39:09;101714.25;;;19.63;100.00
13068;BME280;6600;51.362;6.686;2023-08-20T04:41:35;101709.09;;;19.61;100.00
13068;BME280;6600;51.362;6.686;2023-08-20T04:44:00;101712.44;;;19.69;100.00
13068;BME280;6600;51.362;6.686;2023-08-20T04:46:25;101713.22;;;19.86;100.00
13068;BME280;6600;51.362;6.686;2023-08-20T04:48:51;101715.97;;;19.91;100.00
13068;BME280;6600;51.362;6.686;2023-08-20T04:51:16;101719.13;;;19.83;100.00
13068;BME280;6600;51.362;6.686;2023-08-20T04:53:41;101724.59;;;19.44;100.00
13068;BME280;6600;51.362;6.686;2023-08-20T04:56:07;101726.97;;;19.57;100.00
13068;BME280;6600;51.362;6.686;2023-08-20T04:58:32;101734.06;;;19.42;100.00
13068;BME280;6600;51.362;6.686;2023-08-20T05:00:57;101722.13;;;19.26;100.00
13068;BME280;6600;51.362;6.686;2023-08-20T05:03:23;101721.06;;;19.27;100.00
13068;BME280;6600;51.362;6.686;2023-08-20T05:05:49;101726.56;;;19.32;100.00
13068;BME280;6600;51.362;6.686;2023-08-20T05:08:15;101721.22;;;19.37;100.00
13068;BME280;6600;51.362;6.686;2023-08-20T05:10:40;101723.50;;;19.45;100.00
13068;BME280;6600;51.362;6.686;2023-08-20T05:13:05;101724.16;;;19.52;100.00
13068;BME280;6600;51.362;6.686;2023-08-20T05:15:31;101725.97;;;19.63;100.00
13068;BME280;6600;51.362;6.686;2023-08-20T05:17:56;101724.31;;;19.62;100.00
13068;BME280;6600;51.362;6.686;2023-08-20T05:20:21;101731.28;;;19.75;100.00
13068;BME280;6600;51.362;6.686;2023-08-20T05:22:46;101730.47;;;19.75;100.00
13068;BME280;6600;51.362;6.686;2023-08-20T05:25:12;101733.56;;;19.83;100.00
13068;BME280;6600;51.362;6.686;2023-08-20T05:27:37;101728.00;;;19.95;100.00
13068;BME280;6600;51.362;6.686;2023-08-20T05:30:03;101736.34;;;20.10;100.00
13068;BME280;6600;51.362;6.686;2023-08-20T05:32:28;101742.59;;;20.27;100.00
13068;BME280;6600;51.362;6.686;2023-08-20T05:34:54;101742.81;;;20.26;100.00
13068;BME280;6600;51.362;6.686;2023-08-20T05:37:19;101742.19;;;20.40;100.00
13068;BME280;6600;51.362;6.686;2023-08-20T05:39:44;101746.50;;;20.63;100.00
13068;BME280;6600;51.362;6.686;2023-08-20T05:42:10;101737.59;;;20.73;100.00
13068;BME280;6600;51.362;6.686;2023-08-20T05:44:35;101741.03;;;20.90;100.00
13068;BME280;6600;51.362;6.686;2023-08-20T05:47:01;101746.56;;;21.00;100.00
13068;BME280;6600;51.362;6.686;2023-08-20T05:49:27;101745.03;;;21.09;100.00
13068;BME280;6600;51.362;6.686;2023-08-20T05:51:52;101747.81;;;21.14;100.00
13068;BME280;6600;51.362;6.686;2023-08-20T05:54:18;101751.72;;;21.23;100.00
13068;BME280;6600;51.362;6.686;2023-08-20T05:56:43;101762.09;;;21.31;100.00
13068;BME280;6600;51.362;6.686;2023-08-20T05:59:08;101750.91;;;21.28;100.00
13068;BME280;6600;51.362;6.686;2023-08-20T06:01:34;101756.41;;;21.33;100.00
13068;BME280;6600;51.362;6.686;2023-08-20T06:03:59;101745.63;;;21.48;100.00
13068;BME280;6600;51.362;6.686;2023-08-20T06:06:26;101743.13;;;21.46;100.00
13068;BME280;6600;51.362;6.686;2023-08-20T06:08:51;101752.56;;;21.71;100.00
13068;BME280;6600;51.362;6.686;2023-08-20T06:11:16;101753.69;;;21.75;100.00
13068;BME280;6600;51.362;6.686;2023-08-20T06:13:42;101756.50;;;21.90;100.00
13068;BME280;6600;51.362;6.686;2023-08-20T06:16:07;101750.59;;;22.03;100.00
13068;BME280;6600;51.362;6.686;2023-08-20T06:18:32;101754.41;;;22.07;100.00
13068;BME280;6600;51.362;6.686;2023-08-20T06:20:58;101747.38;;;22.26;100.00
13068;BME280;6600;51.362;6.686;2023-08-20T06:23:23;101745.75;;;22.35;100.00
13068;BME280;6600;51.362;6.686;2023-08-20T06:25:50;101747.34;;;22.21;100.00
13068;BME280;6600;51.362;6.686;2023-08-20T06:28:16;101750.41;;;22.30;100.00
13068;BME280;6600;51.362;6.686;2023-08-20T06:30:41;101758.84;;;22.28;100.00
13068;BME280;6600;51.362;6.686;2023-08-20T06:33:07;101756.72;;;22.45;100.00
13068;BME280;6600;51.362;6.686;2023-08-20T06:35:34;101755.88;;;22.45;100.00
13068;BME280;6600;51.362;6.686;2023-08-20T06:37:59;101758.34;;;22.51;100.00
13068;BME280;6600;51.362;6.686;2023-08-20T06:40:24;101759.50;;;22.65;100.00
13068;BME280;6600;51.362;6.686;2023-08-20T06:42:50;101767.19;;;22.74;100.00
13068;BME280;6600;51.362;6.686;2023-08-20T06:45:15;101761.72;;;22.74;100.00
13068;BME280;6600;51.362;6.686;2023-08-20T06:47:40;101763.94;;;22.82;100.00
13068;BME280;6600;51.362;6.686;2023-08-20T06:50:06;101765.03;;;22.96;100.00
13068;BME280;6600;51.362;6.686;2023-08-20T06:52:31;101761.19;;;23.07;100.00
13068;BME280;6600;51.362;6.686;2023-08-20T06:54:56;101758.47;;;23.17;100.00
13068;BME280;6600;51.362;6.686;2023-08-20T06:57:22;101754.38;;;23.25;100.00
13068;BME280;6600;51.362;6.686;2023-08-20T06:59:48;101762.28;;;23.31;100.00
13068;BME280;6600;51.362;6.686;2023-08-20T07:02:13;101765.59;;;23.53;100.00
13068;BME280;6600;51.362;6.686;2023-08-20T07:04:39;101768.28;;;23.58;100.00
13068;BME280;6600;51.362;6.686;2023-08-20T07:07:04;101764.47;;;23.64;100.00
13068;BME280;6600;51.362;6.686;2023-08-20T07:09:33;101757.84;;;23.76;100.00
13068;BME280;6600;51.362;6.686;2023-08-20T07:11:58;101761.94;;;23.88;100.00
13068;BME280;6600;51.362;6.686;2023-08-20T07:14:24;101767.16;;;23.80;99.30
13068;BME280;6600;51.362;6.686;2023-08-20T07:16:49;101765.50;;;23.84;99.96
13068;BME280;6600;51.362;6.686;2023-08-20T07:19:14;101764.59;;;24.03;100.00
13068;BME280;6600;51.362;6.686;2023-08-20T07:21:40;101770.41;;;23.92;98.92
13068;BME280;6600;51.362;6.686;2023-08-20T07:24:05;101757.22;;;24.09;98.78
13068;BME280;6600;51.362;6.686;2023-08-20T07:26:31;101768.16;;;24.14;98.82
13068;BME280;6600;51.362;6.686;2023-08-20T07:28:56;101767.06;;;24.20;99.31
13068;BME280;6600;51.362;6.686;2023-08-20T07:31:22;101759.81;;;24.44;99.28
13068;BME280;6600;51.362;6.686;2023-08-20T07:33:51;101762.44;;;24.59;100.00
13068;BME280;6600;51.362;6.686;2023-08-20T07:36:17;101765.22;;;24.54;97.61
13068;BME280;6600;51.362;6.686;2023-08-20T07:38:43;101765.28;;;24.44;98.50
13068;BME280;6600;51.362;6.686;2023-08-20T07:41:09;101764.16;;;24.50;98.84
13068;BME280;6600;51.362;6.686;2023-08-20T07:43:38;101769.06;;;24.53;97.60
13068;BME280;6600;51.362;6.686;2023-08-20T07:46:04;101769.00;;;24.63;98.54
13068;BME280;6600;51.362;6.686;2023-08-20T07:48:29;101768.91;;;24.79;99.14
13068;BME280;6600;51.362;6.686;2023-08-20T07:50:55;101770.47;;;24.90;98.47
13068;BME280;6600;51.362;6.686;2023-08-20T07:53:20;101767.22;;;24.88;98.54
13068;BME280;6600;51.362;6.686;2023-08-20T07:55:45;101770.09;;;24.62;97.70
13068;BME280;6600;51.362;6.686;2023-08-20T07:58:10;101767.47;;;24.42;100.00
13068;BME280;6600;51.362;6.686;2023-08-20T08:00:36;101767.34;;;24.62;99.54
13068;BME280;6600;51.362;6.686;2023-08-20T08:03:01;101765.69;;;24.67;99.31
13068;BME280;6600;51.362;6.686;2023-08-20T08:05:28;101758.53;;;24.71;99.21
13068;BME280;6600;51.362;6.686;2023-08-20T08:07:53;101763.41;;;24.84;98.31
13068;BME280;6600;51.362;6.686;2023-08-20T08:10:18;101756.19;;;24.93;98.33
13068;BME280;6600;51.362;6.686;2023-08-20T08:12:44;101756.16;;;25.03;98.00
13068;BME280;6600;51.362;6.686;2023-08-20T08:15:09;101768.72;;;25.04;96.74
13068;BME280;6600;51.362;6.686;2023-08-20T08:17:35;101770.28;;;25.15;96.63
13068;BME280;6600;51.362;6.686;2023-08-20T08:20:00;101775.78;;;25.15;96.29
13068;BME280;6600;51.362;6.686;2023-08-20T08:22:25;101770.88;;;25.12;95.66
13068;BME280;6600;51.362;6.686;2023-08-20T08:24:51;101769.59;;;25.33;95.82
13068;BME280;6600;51.362;6.686;2023-08-20T08:27:16;101777.34;;;25.26;94.26
13068;BME280;6600;51.362;6.686;2023-08-20T08:29:41;101773.88;;;25.44;94.79
13068;BME280;6600;51.362;6.686;2023-08-20T08:32:06;101770.41;;;25.34;95.42
13068;BME280;6600;51.362;6.686;2023-08-20T08:34:32;101776.56;;;25.49;94.53
13068;BME280;6600;51.362;6.686;2023-08-20T08:36:57;101782.44;;;25.67;92.59
13068;BME280;6600;51.362;6.686;2023-08-20T08:39:22;101777.56;;;25.87;93.14
13068;BME280;6600;51.362;6.686;2023-08-20T08:41:50;101780.06;;;25.84;91.64
13068;BME280;6600;51.362;6.686;2023-08-20T08:44:16;101777.50;;;25.92;90.72
13068;BME280;6600;51.362;6.686;2023-08-20T08:46:42;101771.94;;;26.21;90.93
13068;BME280;6600;51.362;6.686;2023-08-20T08:49:08;101781.19;;;26.30;89.80
13068;BME280;6600;51.362;6.686;2023-08-20T08:51:34;101780.97;;;26.27;88.95
13068;BME280;6600;51.362;6.686;2023-08-20T08:54:00;101783.53;;;26.18;88.86
13068;BME280;6600;51.362;6.686;2023-08-20T08:56:26;101784.59;;;26.22;87.77
13068;BME280;6600;51.362;6.686;2023-08-20T08:58:52;101789.22;;;26.45;87.89
13068;BME280;6600;51.362;6.686;2023-08-20T09:01:18;101783.06;;;26.53;86.53
13068;BME280;6600;51.362;6.686;2023-08-20T09:03:43;101801.41;;;26.39;84.58
13068;BME280;6600;51.362;6.686;2023-08-20T09:06:09;101786.31;;;26.37;82.92
13068;BME280;6600;51.362;6.686;2023-08-20T09:08:35;101788.78;;;26.76;82.97
13068;BME280;6600;51.362;6.686;2023-08-20T09:11:01;101782.41;;;26.99;82.36
13068;BME280;6600;51.362;6.686;2023-08-20T09:13:41;101785.75;;;27.28;81.54
13068;BME280;6600;51.362;6.686;2023-08-20T09:16:09;101784.22;;;27.22;80.46
13068;BME280;6600;51.362;6.686;2023-08-20T09:18:42;101789.78;;;27.17;80.92
13068;BME280;6600;51.362;6.686;2023-08-20T09:21:10;101787.28;;;27.34;82.53
13068;BME280;6600;51.362;6.686;2023-08-20T09:23:36;101788.44;;;27.33;81.88
13068;BME280;6600;51.362;6.686;2023-08-20T09:26:02;101786.72;;;27.05;83.54
13068;BME280;6600;51.362;6.686;2023-08-20T09:28:28;101792.53;;;26.85;85.29
13068;BME280;6600;51.362;6.686;2023-08-20T09:30:58;101788.66;;;26.86;86.12
13068;BME280;6600;51.362;6.686;2023-08-20T09:33:23;101786.56;;;26.78;86.10
13068;BME280;6600;51.362;6.686;2023-08-20T09:35:50;101795.03;;;26.62;87.04
13068;BME280;6600;51.362;6.686;2023-08-20T09:38:19;101794.25;;;26.38;87.31
13068;BME280;6600;51.362;6.686;2023-08-20T09:40:47;101793.66;;;26.23;86.86
13068;BME280;6600;51.362;6.686;2023-08-20T09:43:14;101794.63;;;26.32;86.76
13068;BME280;6600;51.362;6.686;2023-08-20T09:45:42;101795.66;;;26.36;87.28
13068;BME280;6600;51.362;6.686;2023-08-20T09:48:09;101800.66;;;26.52;86.72
13068;BME280;6600;51.362;6.686;2023-08-20T09:50:36;101800.66;;;26.52;85.82
13068;BME280;6600;51.362;6.686;2023-08-20T09:53:12;101803.25;;;26.62;84.72
13068;BME280;6600;51.362;6.686;2023-08-20T09:55:43;101794.97;;;26.86;85.44
13068;BME280;6600;51.362;6.686;2023-08-20T09:58:10;101804.09;;;27.19;83.11
13068;BME280;6600;51.362;6.686;2023-08-20T10:00:36;101798.22;;;27.39;83.79
13068;BME280;6600;51.362;6.686;2023-08-20T10:03:02;101806.84;;;27.51;83.23
13068;BME280;6600;51.362;6.686;2023-08-20T10:05:27;101810.63;;;27.55;83.28
13068;BME280;6600;51.362;6.686;2023-08-20T10:07:54;101809.69;;;27.46;83.41
13068;BME280;6600;51.362;6.686;2023-08-20T10:10:21;101813.03;;;27.43;83.45
13068;BME280;6600;51.362;6.686;2023-08-20T10:12:46;101818.34;;;27.21;81.88
13068;BME280;6600;51.362;6.686;2023-08-20T10:15:13;101804.09;;;27.00;83.90
13068;BME280;6600;51.362;6.686;2023-08-20T10:17:41;101798.59;;;27.19;83.42
13068;BME280;6600;51.362;6.686;2023-08-20T10:20:07;101803.38;;;27.46;83.30
13068;BME280;6600;51.362;6.686;2023-08-20T10:25:09;101799.34;;;27.71;79.63
13068;BME280;6600;51.362;6.686;2023-08-20T10:27:40;101800.59;;;27.92;79.47
13068;BME280;6600;51.362;6.686;2023-08-20T10:30:17;101804.09;;;28.11;77.75
13068;BME280;6600;51.362;6.686;2023-08-20T10:35:09;101802.63;;;28.00;77.21
13068;BME280;6600;51.362;6.686;2023-08-20T10:37:34;101797.75;;;28.24;78.67
13068;BME280;6600;51.362;6.686;2023-08-20T10:40:02;101797.75;;;28.24;75.99
13068;BME280;6600;51.362;6.686;2023-08-20T10:42:29;101799.47;;;28.47;76.71
13068;BME280;6600;51.362;6.686;2023-08-20T10:45:07;101801.81;;;28.40;75.22
13068;BME280;6600;51.362;6.686;2023-08-20T10:47:45;101795.66;;;28.57;76.44
13068;BME280;6600;51.362;6.686;2023-08-20T10:50:12;101800.41;;;28.29;76.77
13068;BME280;6600;51.362;6.686;2023-08-20T10:52:41;101810.06;;;27.86;77.67
13068;BME280;6600;51.362;6.686;2023-08-20T10:55:10;101803.81;;;27.67;79.52
13068;BME280;6600;51.362;6.686;2023-08-20T10:57:36;101803.44;;;27.87;78.50
13068;BME280;6600;51.362;6.686;2023-08-20T11:00:05;101804.66;;;27.94;77.80
13068;BME280;6600;51.362;6.686;2023-08-20T11:02:35;101795.38;;;28.04;76.57
13068;BME280;6600;51.362;6.686;2023-08-20T11:05:02;101803.44;;;27.87;76.85
13068;BME280;6600;51.362;6.686;2023-08-20T11:07:29;101798.09;;;27.63;76.81
13068;BME280;6600;51.362;6.686;2023-08-20T11:09:57;101803.69;;;27.44;77.99
13068;BME280;6600;51.362;6.686;2023-08-20T11:12:22;101808.22;;;27.35;78.86
13068;BME280;6600;51.362;6.686;2023-08-20T11:14:48;101800.94;;;27.44;75.85
13068;BME280;6600;51.362;6.686;2023-08-20T11:17:13;101801.59;;;27.36;73.90
13068;BME280;6600;51.362;6.686;2023-08-20T11:19:39;101799.00;;;27.26;75.83
13068;BME280;6600;51.362;6.686;2023-08-20T11:22:05;101797.88;;;27.46;76.40
13068;BME280;6600;51.362;6.686;2023-08-20T11:24:30;101794.88;;;27.75;75.16
13068;BME280;6600;51.362;6.686;2023-08-20T11:26:56;101804.88;;;27.84;75.53
13068;BME280;6600;51.362;6.686;2023-08-20T11:29:21;101802.59;;;27.73;75.02
13068;BME280;6600;51.362;6.686;2023-08-20T11:31:47;101797.41;;;27.57;75.94
13068;BME280;6600;51.362;6.686;2023-08-20T11:34:13;101804.16;;;27.79;73.19
13068;BME280;6600;51.362;6.686;2023-08-20T11:36:39;101802.94;;;27.98;72.03
13068;BME280;6600;51.362;6.686;2023-08-20T11:39:05;101798.94;;;27.64;73.27
13068;BME280;6600;51.362;6.686;2023-08-20T11:41:31;101797.69;;;27.70;72.86
13068;BME280;6600;51.362;6.686;2023-08-20T11:43:57;101799.34;;;27.71;74.38
13068;BME280;6600;51.362;6.686;2023-08-20T11:46:23;101791.78;;;27.63;75.44
13068;BME280;6600;51.362;6.686;2023-08-20T11:49:03;101793.09;;;27.19;74.45
13068;BME280;6600;51.362;6.686;2023-08-20T11:51:34;101792.28;;;27.32;74.88
13068;BME280;6600;51.362;6.686;2023-08-20T11:54:00;101794.22;;;27.50;76.43
13068;BME280;6600;51.362;6.686;2023-08-20T11:56:26;101796.09;;;27.96;76.57
13068;BME280;6600;51.362;6.686;2023-08-20T11:58:52;101792.63;;;28.04;75.58
13068;BME280;6600;51.362;6.686;2023-08-20T12:01:20;101786.50;;;28.21;74.89
13068;BME280;6600;51.362;6.686;2023-08-20T12:03:46;101786.72;;;28.10;71.49
13068;BME280;6600;51.362;6.686;2023-08-20T12:06:21;101785.47;;;27.89;74.29
13068;BME280;6600;51.362;6.686;2023-08-20T12:08:48;101793.03;;;27.84;76.21
13068;BME280;6600;51.362;6.686;2023-08-20T12:11:13;101778.16;;;27.85;75.99
13068;BME280;6600;51.362;6.686;2023-08-20T12:13:40;101779.72;;;27.58;76.04
13068;BME280;6600;51.362;6.686;2023-08-20T12:16:05;101782.81;;;27.57;75.57
13068;BME280;6600;51.362;6.686;2023-08-20T12:18:31;101779.56;;;27.36;76.17
13068;BME280;6600;51.362;6.686;2023-08-20T12:20:56;101780.06;;;27.38;76.31
13068;BME280;6600;51.362;6.686;2023-08-20T12:23:22;101774.75;;;27.47;76.30
13068;BME280;6600;51.362;6.686;2023-08-20T12:25:51;101784.97;;;27.41;77.55
13068;BME280;6600;51.362;6.686;2023-08-20T12:28:17;101780.91;;;27.39;78.43
13068;BME280;6600;51.362;6.686;2023-08-20T12:30:43;101767.22;;;27.20;77.50
13068;BME280;6600;51.362;6.686;2023-08-20T12:33:09;101770.47;;;27.22;77.89
13068;BME280;6600;51.362;6.686;2023-08-20T12:35:34;101770.72;;;27.39;76.65
13068;BME280;6600;51.362;6.686;2023-08-20T12:38:00;101776.50;;;27.70;75.46
13068;BME280;6600;51.362;6.686;2023-08-20T12:40:25;101767.63;;;28.00;75.72
13068;BME280;6600;51.362;6.686;2023-08-20T12:42:50;101766.94;;;28.22;74.38
13068;BME280;6600;51.362;6.686;2023-08-20T12:45:16;101776.88;;;28.45;73.26
13068;BME280;6600;51.362;6.686;2023-08-20T12:47:41;101771.13;;;28.55;72.95
13068;BME280;6600;51.362;6.686;2023-08-20T12:50:07;101768.50;;;28.50;72.13
13068;BME280;6600;51.362;6.686;2023-08-20T12:52:33;101761.28;;;28.77;72.37
13068;BME280;6600;51.362;6.686;2023-08-20T12:54:58;101761.91;;;28.74;71.36
13068;BME280;6600;51.362;6.686;2023-08-20T12:57:23;101757.16;;;28.88;71.25
13068;BME280;6600;51.362;6.686;2023-08-20T12:59:49;101758.81;;;28.89;71.58
13068;BME280;6600;51.362;6.686;2023-08-20T13:02:14;101753.16;;;29.16;72.24